Terminal Aerodrome Forecast
Issued by NWS San Angelo, TX

Home | Current Version | Previous Version | Text Only | Print | Product List | Glossary On
Versions: 1 2 3 4 5 6 7 8 9 10 11 12 13 14 15 16 17 18 19
946
FTUS44 KSJT 241203 AAA
TAFABI
TAF AMD
KABI 241203Z 2412/2512 05013G23KT P6SM VCTS BKN012CB
      TEMPO 2413/2415 VRB15G30KT 3SM -TSRA
     FM241500 04011KT P6SM BKN050=

USA.gov is the U.S. government's official web portal to all federal, state and local government web resources and services.